createdAt,value
2019-05-07T00:01:44.685Z,6.34
2019-05-07T00:04:13.098Z,6.41
2019-05-07T00:06:43.426Z,6.31
2019-05-07T00:09:13.732Z,6.30
2019-05-07T00:11:42.681Z,6.39
2019-05-07T00:14:12.622Z,6.34
2019-05-07T00:16:42.284Z,6.33
2019-05-07T00:19:12.874Z,6.32
2019-05-07T00:21:42.335Z,6.26
2019-05-07T00:24:13.168Z,6.21
2019-05-07T00:26:43.073Z,6.16
2019-05-07T00:29:12.948Z,6.14
2019-05-07T00:31:42.146Z,6.03
2019-05-07T00:34:12.619Z,6.05
2019-05-07T00:36:52.501Z,6.00
2019-05-07T00:39:39.691Z,5.93
2019-05-07T00:42:25.836Z,5.87
2019-05-07T00:45:13.258Z,6.06
2019-05-07T00:47:29.235Z,5.96
2019-05-07T00:49:59.282Z,5.93
2019-05-07T00:52:27.894Z,5.99
2019-05-07T00:54:56.310Z,6.02
2019-05-07T00:57:24.726Z,5.98
2019-05-07T00:59:53.157Z,6.02
2019-05-07T01:02:23.312Z,6.02
2019-05-07T01:04:53.199Z,6.00
2019-05-07T01:07:22.872Z,5.99
2019-05-07T01:09:52.387Z,5.98
2019-05-07T01:12:22.171Z,5.99
2019-05-07T01:14:52.826Z,6.01
2019-05-07T01:17:22.683Z,6.02
2019-05-07T01:19:53.218Z,6.02
2019-05-07T01:22:22.230Z,6.00
2019-05-07T01:24:52.537Z,6.00
2019-05-07T01:27:22.639Z,6.04
2019-05-07T01:29:52.763Z,6.01
2019-05-07T01:32:34.742Z,6.05
2019-05-07T01:35:05.391Z,6.06
2019-05-07T01:37:33.830Z,6.04
2019-05-07T01:40:03.085Z,6.05
2019-05-07T01:42:32.705Z,6.05
2019-05-07T01:45:02.273Z,6.01
2019-05-07T01:47:33.009Z,6.02
2019-05-07T01:50:03.076Z,5.98
2019-05-07T01:52:33.175Z,5.98
2019-05-07T01:55:03.209Z,5.99
2019-05-07T01:57:32.634Z,6.01
2019-05-07T02:00:02.554Z,6.01
2019-05-07T02:02:33.008Z,5.97
2019-05-07T02:05:05.795Z,6.03
2019-05-07T02:07:38.567Z,5.96
2019-05-07T02:10:09.264Z,5.93
2019-05-07T02:12:38.761Z,5.87
2019-05-07T02:15:08.232Z,5.92
2019-05-07T02:17:36.670Z,5.88
2019-05-07T02:20:06.840Z,5.89
2019-05-07T02:22:35.250Z,5.88
2019-05-07T02:25:04.182Z,5.89
2019-05-07T02:27:32.991Z,5.87
2019-05-07T02:30:04.339Z,5.92
2019-05-07T02:32:33.364Z,5.91
2019-05-07T02:35:03.951Z,5.92
2019-05-07T02:37:47.145Z,5.84
2019-05-07T02:40:14.324Z,5.88
2019-05-07T02:42:44.227Z,5.93
2019-05-07T02:45:14.829Z,5.83
2019-05-07T02:47:43.889Z,5.80
2019-05-07T02:50:32.922Z,5.83
2019-05-07T02:53:18.390Z,5.79
2019-05-07T02:55:48.531Z,5.72
2019-05-07T02:58:16.963Z,5.77
2019-05-07T03:00:45.475Z,5.74
2019-05-07T03:03:14.083Z,5.64
2019-05-07T03:05:43.310Z,5.58
2019-05-07T03:08:13.622Z,5.64
2019-05-07T03:10:43.372Z,5.55
2019-05-07T03:13:13.722Z,5.60
2019-05-07T03:15:43.462Z,5.60
2019-05-07T03:18:13.765Z,5.63
2019-05-07T03:20:50.070Z,5.66
2019-05-07T03:23:22.611Z,5.67
2019-05-07T03:25:54.168Z,5.60
2019-05-07T03:28:23.733Z,5.54
2019-05-07T03:31:05.948Z,5.57
2019-05-07T03:33:37.276Z,5.54
2019-05-07T03:36:08.094Z,5.47
2019-05-07T03:38:36.697Z,5.46
2019-05-07T03:41:05.225Z,5.32
2019-05-07T03:43:33.611Z,5.35
2019-05-07T03:46:06.111Z,5.32
2019-05-07T03:48:36.157Z,5.30
2019-05-07T03:51:04.660Z,5.27
2019-05-07T03:53:33.938Z,5.13
2019-05-07T03:56:04.142Z,5.20
2019-05-07T03:58:34.029Z,5.17
2019-05-07T04:01:04.381Z,5.19
2019-05-07T04:03:34.204Z,5.18
2019-05-07T04:06:04.017Z,5.16
2019-05-07T04:08:33.620Z,5.18
2019-05-07T04:11:03.512Z,5.13
2019-05-07T04:13:33.550Z,5.08
2019-05-07T04:16:04.077Z,5.01
2019-05-07T04:18:33.142Z,5.07
2019-05-07T04:21:03.622Z,5.06
2019-05-07T04:23:34.128Z,5.01
2019-05-07T04:26:06.751Z,5.04
2019-05-07T04:28:36.806Z,5.04
2019-05-07T04:31:05.302Z,5.06
2019-05-07T04:33:35.393Z,5.08
2019-05-07T04:36:05.451Z,5.11
2019-05-07T04:38:33.888Z,5.12
2019-05-07T04:41:03.888Z,5.14
2019-05-07T04:43:33.691Z,5.14
2019-05-07T04:46:03.393Z,5.21
2019-05-07T04:48:33.986Z,5.23
2019-05-07T04:51:03.916Z,5.25
2019-05-07T04:53:32.977Z,5.22
2019-05-07T04:56:03.298Z,5.28
2019-05-07T04:58:33.912Z,5.22
2019-05-07T05:01:03.212Z,5.20
2019-05-07T05:03:34.638Z,5.28
2019-05-07T05:06:02.753Z,5.40
2019-05-07T05:08:32.485Z,5.45
2019-05-07T05:11:03.377Z,5.52
2019-05-07T05:13:33.132Z,5.50
2019-05-07T05:16:03.493Z,5.51
2019-05-07T05:18:32.970Z,5.53
2019-05-07T05:21:03.157Z,5.62
2019-05-07T05:23:33.300Z,5.68
2019-05-07T05:26:01.990Z,5.74
2019-05-07T05:28:32.364Z,5.77
2019-05-07T05:31:03.405Z,5.87
2019-05-07T05:33:32.430Z,5.95
2019-05-07T05:36:03.073Z,6.05
2019-05-07T05:38:32.914Z,6.20
2019-05-07T05:41:02.715Z,6.31
2019-05-07T05:43:49.516Z,6.30
2019-05-07T05:46:19.616Z,6.25
2019-05-07T05:48:48.029Z,6.43
2019-05-07T05:51:18.117Z,6.44
2019-05-07T05:53:48.181Z,6.47
2019-05-07T05:56:35.970Z,6.38
2019-05-07T05:59:24.181Z,6.73
2019-05-07T06:02:06.691Z,7.57
2019-05-07T06:04:36.478Z,8.26
2019-05-07T06:07:11.438Z,8.31
2019-05-07T06:09:44.099Z,8.85
2019-05-07T06:12:32.718Z,9.11
2019-05-07T06:15:18.259Z,8.89
2019-05-07T06:17:48.434Z,9.41
2019-05-07T06:20:18.737Z,9.65
2019-05-07T06:22:48.803Z,9.66
2019-05-07T06:25:25.445Z,9.59
2019-05-07T06:27:54.382Z,9.89
2019-05-07T06:30:22.938Z,10.08
2019-05-07T06:32:52.301Z,10.01
2019-05-07T06:35:22.977Z,9.72
2019-05-07T06:37:52.147Z,9.32
2019-05-07T06:40:42.248Z,9.04
2019-05-07T06:43:12.434Z,9.00
2019-05-07T06:45:42.572Z,9.83
2019-05-07T06:48:12.632Z,9.16
2019-05-07T06:50:43.268Z,8.80
2019-05-07T06:53:12.177Z,9.34
2019-05-07T06:55:42.687Z,9.83
2019-05-07T06:58:12.263Z,9.45
2019-05-07T07:00:42.570Z,9.49
2019-05-07T07:03:15.338Z,9.47
2019-05-07T07:05:45.385Z,9.35
2019-05-07T07:08:22.991Z,8.79
2019-05-07T07:11:02.603Z,9.25
2019-05-07T07:13:32.186Z,10.38
2019-05-07T07:16:01.888Z,9.74
2019-05-07T07:18:32.358Z,9.65
2019-05-07T07:21:02.202Z,9.95
2019-05-07T07:23:32.438Z,10.10
2019-05-07T07:26:03.113Z,10.09
2019-05-07T07:28:32.611Z,10.51
2019-05-07T07:31:15.136Z,10.70
2019-05-07T07:33:47.820Z,10.83
2019-05-07T07:36:17.155Z,10.26
2019-05-07T07:38:45.618Z,9.59
2019-05-07T07:41:18.358Z,9.81
2019-05-07T07:43:46.835Z,10.70
2019-05-07T07:46:16.668Z,11.21
2019-05-07T07:48:45.491Z,10.94
2019-05-07T07:51:14.260Z,10.32
2019-05-07T07:53:43.136Z,9.85
2019-05-07T07:56:29.365Z,9.83
2019-05-07T07:59:05.589Z,9.41
2019-05-07T08:01:47.407Z,10.62
2019-05-07T08:04:15.892Z,10.90
2019-05-07T08:06:45.649Z,10.98
2019-05-07T08:09:14.092Z,10.73
2019-05-07T08:11:42.720Z,10.74
2019-05-07T08:14:12.631Z,10.39
2019-05-07T08:16:42.918Z,10.43
2019-05-07T08:19:19.360Z,9.71
2019-05-07T08:21:42.112Z,9.83
2019-05-07T08:24:12.224Z,9.78
2019-05-07T08:26:42.863Z,9.30
2019-05-07T08:29:11.950Z,9.65
2019-05-07T08:31:45.142Z,10.06
2019-05-07T08:34:17.901Z,10.32
2019-05-07T08:36:46.462Z,10.53
2019-05-07T08:39:14.921Z,10.26
2019-05-07T08:41:43.344Z,10.34
2019-05-07T08:44:15.612Z,10.24
2019-05-07T08:46:52.085Z,10.56
2019-05-07T08:49:33.406Z,10.42
2019-05-07T08:52:03.337Z,10.53
2019-05-07T08:54:32.260Z,10.18
2019-05-07T08:57:02.016Z,10.29
2019-05-07T08:59:32.083Z,9.92
2019-05-07T09:02:03.057Z,9.80
2019-05-07T09:04:32.719Z,9.54
2019-05-07T09:07:02.739Z,9.51
2019-05-07T09:09:32.349Z,9.46
2019-05-07T09:12:03.084Z,9.76
2019-05-07T09:14:32.066Z,9.93
2019-05-07T09:17:02.473Z,10.14
2019-05-07T09:19:32.371Z,9.97
2019-05-07T09:22:02.270Z,9.22
2019-05-07T09:24:33.273Z,9.41
2019-05-07T09:27:02.934Z,9.84
2019-05-07T09:29:33.012Z,9.96
2019-05-07T09:32:22.735Z,10.14
2019-05-07T09:34:52.903Z,10.34
2019-05-07T09:37:25.533Z,10.79
2019-05-07T09:39:53.935Z,10.63
2019-05-07T09:42:22.683Z,10.62
2019-05-07T09:44:52.882Z,9.96
2019-05-07T09:47:21.918Z,10.05
2019-05-07T09:50:01.959Z,10.15
2019-05-07T09:52:22.650Z,10.44
2019-05-07T09:54:52.265Z,10.69
2019-05-07T09:57:30.077Z,10.61
2019-05-07T09:59:53.045Z,10.33
2019-05-07T10:02:22.695Z,10.12
2019-05-07T10:04:52.724Z,9.92
2019-05-07T10:07:22.334Z,9.84
2019-05-07T10:09:52.348Z,10.07
2019-05-07T10:12:25.632Z,10.38
2019-05-07T10:14:54.137Z,10.89
2019-05-07T10:17:24.281Z,11.14
2019-05-07T10:19:52.775Z,11.48
2019-05-07T10:22:22.762Z,10.84
2019-05-07T10:24:52.215Z,10.26
2019-05-07T10:27:21.827Z,10.36
2019-05-07T10:29:52.895Z,10.24
2019-05-07T10:32:21.072Z,10.36
2019-05-07T10:34:49.518Z,10.61
2019-05-07T10:37:18.020Z,11.03
2019-05-07T10:39:46.515Z,11.06
2019-05-07T10:42:14.944Z,11.46
2019-05-07T10:44:47.749Z,11.54
2019-05-07T10:47:33.883Z,11.80
2019-05-07T10:50:31.709Z,11.69
2019-05-07T10:52:49.578Z,11.68
2019-05-07T10:55:18.061Z,11.72
2019-05-07T10:57:46.480Z,11.61
2019-05-07T11:00:18.188Z,11.44
2019-05-07T11:02:46.723Z,10.84
2019-05-07T11:05:15.835Z,10.62
2019-05-07T11:07:44.330Z,10.70
2019-05-07T11:10:13.785Z,11.08
2019-05-07T11:12:42.635Z,11.10
2019-05-07T11:15:12.620Z,11.60
2019-05-07T11:17:48.751Z,11.86
2019-05-07T11:20:18.732Z,11.68
2019-05-07T11:22:47.215Z,11.23
2019-05-07T11:25:15.690Z,11.27
2019-05-07T11:27:44.187Z,11.30
2019-05-07T11:30:14.346Z,11.32
2019-05-07T11:32:43.038Z,11.44
2019-05-07T11:35:14.638Z,11.12
2019-05-07T11:37:44.088Z,11.38
2019-05-07T11:40:13.104Z,11.65
2019-05-07T11:42:58.215Z,11.59
2019-05-07T11:45:37.235Z,12.03
2019-05-07T11:48:06.299Z,12.13
2019-05-07T11:51:01.500Z,12.45
2019-05-07T11:53:25.995Z,12.75
2019-05-07T11:55:54.421Z,12.97
2019-05-07T11:58:22.927Z,12.55
2019-05-07T12:03:42.758Z,12.78
2019-05-07T12:06:12.429Z,12.64
2019-05-07T12:08:48.046Z,12.96
2019-05-07T12:11:11.929Z,12.83
2019-05-07T12:13:42.564Z,12.93
2019-05-07T12:16:13.951Z,12.98
2019-05-07T12:18:42.946Z,12.98
2019-05-07T12:21:18.345Z,12.96
2019-05-07T12:23:42.179Z,13.27
2019-05-07T12:26:12.584Z,12.82
2019-05-07T12:28:41.860Z,12.80
2019-05-07T12:31:27.175Z,12.56
2019-05-07T12:34:15.392Z,12.96
2019-05-07T12:36:43.815Z,12.78
2019-05-07T12:39:12.876Z,12.35
2019-05-07T12:41:41.883Z,12.29
2019-05-07T12:44:12.753Z,12.38
2019-05-07T12:46:42.297Z,12.93
2019-05-07T12:49:12.019Z,13.27
2019-05-07T12:51:42.769Z,13.27
2019-05-07T12:54:15.795Z,13.06
2019-05-07T12:56:44.213Z,13.09
2019-05-07T12:59:12.948Z,13.14
2019-05-07T13:01:48.779Z,13.26
2019-05-07T13:04:22.164Z,12.75
2019-05-07T13:06:52.460Z,13.15
2019-05-07T13:09:21.959Z,13.33
2019-05-07T13:11:52.529Z,13.14
2019-05-07T13:14:21.834Z,12.72
2019-05-07T13:16:52.271Z,12.85
2019-05-07T13:19:22.620Z,12.77
2019-05-07T13:21:51.293Z,12.78
2019-05-07T13:24:19.762Z,12.86
2019-05-07T13:26:48.207Z,13.11
2019-05-07T13:29:16.618Z,12.33
2019-05-07T13:31:45.604Z,12.90
2019-05-07T13:34:14.895Z,12.96
2019-05-07T13:36:45.412Z,12.74
2019-05-07T13:39:15.642Z,13.08
2019-05-07T13:41:45.754Z,13.27
2019-05-07T13:44:22.889Z,13.39
2019-05-07T13:46:53.362Z,13.23
2019-05-07T13:49:22.039Z,13.40
2019-05-07T13:52:02.857Z,13.38
2019-05-07T13:54:21.859Z,12.96
2019-05-07T13:56:52.393Z,12.99
2019-05-07T13:59:22.302Z,13.03
2019-05-07T14:01:52.456Z,13.02
2019-05-07T14:04:22.281Z,13.05
2019-05-07T14:06:52.956Z,13.02
2019-05-07T14:09:24.390Z,12.77
2019-05-07T14:11:53.388Z,13.02
2019-05-07T14:14:22.559Z,12.87
2019-05-07T14:16:53.071Z,12.98
2019-05-07T14:19:22.384Z,13.00
2019-05-07T14:21:52.556Z,13.11
2019-05-07T14:24:22.398Z,13.09
2019-05-07T14:26:52.752Z,13.09
2019-05-07T14:29:24.334Z,12.86
2019-05-07T14:31:53.162Z,13.15
2019-05-07T14:34:31.960Z,13.36
2019-05-07T14:37:06.364Z,13.21
2019-05-07T14:39:34.847Z,13.15
2019-05-07T14:42:04.982Z,13.31
2019-05-07T14:44:49.271Z,13.39
2019-05-07T14:47:19.243Z,13.24
2019-05-07T14:49:48.619Z,13.13
2019-05-07T14:52:28.941Z,13.19
2019-05-07T14:54:47.753Z,13.05
2019-05-07T14:57:16.251Z,12.60
2019-05-07T14:59:44.656Z,12.64
2019-05-07T15:02:13.425Z,12.71
2019-05-07T15:04:42.071Z,12.89
2019-05-07T15:07:12.021Z,12.94
2019-05-07T15:09:42.459Z,13.05
2019-05-07T15:12:12.440Z,13.02
2019-05-07T15:14:42.157Z,12.98
2019-05-07T15:17:12.897Z,13.01
2019-05-07T15:19:42.736Z,13.00
2019-05-07T15:22:25.401Z,12.77
2019-05-07T15:24:53.803Z,12.98
2019-05-07T15:27:23.681Z,12.92
2019-05-07T15:29:52.649Z,12.66
2019-05-07T15:32:21.813Z,12.89
2019-05-07T15:34:52.546Z,12.86
2019-05-07T15:37:20.853Z,12.98
2019-05-07T15:39:49.318Z,12.78
2019-05-07T15:42:17.783Z,12.83
2019-05-07T15:44:46.265Z,12.85
2019-05-07T15:47:19.087Z,12.87
2019-05-07T15:49:47.537Z,12.97
2019-05-07T15:52:23.103Z,13.01
2019-05-07T15:54:52.219Z,13.03
2019-05-07T15:57:22.425Z,13.09
2019-05-07T15:59:52.539Z,12.76
2019-05-07T16:02:22.661Z,12.83
2019-05-07T16:04:51.113Z,12.69
2019-05-07T16:07:19.547Z,12.75
2019-05-07T16:09:48.029Z,12.75
2019-05-07T16:12:18.101Z,12.76
2019-05-07T16:14:46.511Z,12.66
2019-05-07T16:17:16.566Z,12.78
2019-05-07T16:19:45.014Z,12.77
2019-05-07T16:22:15.083Z,12.85
2019-05-07T16:24:43.497Z,12.99
2019-05-07T16:27:12.255Z,13.07
2019-05-07T16:29:42.606Z,13.11
2019-05-07T16:32:11.028Z,13.18
2019-05-07T16:34:39.531Z,13.20
2019-05-07T16:37:08.435Z,13.20
2019-05-07T16:39:37.259Z,13.23
2019-05-07T16:42:05.762Z,12.96
2019-05-07T16:44:34.263Z,12.94
2019-05-07T16:47:02.929Z,12.99
2019-05-07T16:49:31.953Z,12.91
2019-05-07T16:52:01.852Z,12.90
2019-05-07T16:54:30.653Z,12.92
2019-05-07T16:57:16.195Z,12.92
2019-05-07T16:59:44.824Z,12.93
2019-05-07T17:02:14.883Z,12.82
2019-05-07T17:05:03.137Z,12.78
2019-05-07T17:07:32.120Z,12.73
2019-05-07T17:10:02.653Z,12.73
2019-05-07T17:12:32.379Z,12.77
2019-05-07T17:15:02.971Z,12.64
2019-05-07T17:17:32.076Z,12.55
2019-05-07T17:20:02.700Z,12.47
2019-05-07T17:22:32.295Z,12.42
2019-05-07T17:25:03.166Z,12.41
2019-05-07T17:27:32.236Z,12.39
2019-05-07T17:30:02.939Z,12.43
2019-05-07T17:32:32.093Z,12.39
2019-05-07T17:35:02.607Z,12.30
2019-05-07T17:37:30.835Z,12.33
2019-05-07T17:39:59.260Z,12.30
2019-05-07T17:42:27.673Z,12.25
2019-05-07T17:44:56.202Z,12.28
2019-05-07T17:47:24.876Z,12.24
2019-05-07T17:49:53.376Z,12.21
2019-05-07T17:52:22.749Z,11.98
2019-05-07T17:54:52.759Z,11.78
2019-05-07T17:57:22.757Z,11.63
2019-05-07T17:59:52.573Z,11.57
2019-05-07T18:02:25.879Z,11.52
2019-05-07T18:04:54.756Z,11.44
2019-05-07T18:07:24.116Z,11.35
2019-05-07T18:09:52.559Z,11.25
2019-05-07T18:12:22.469Z,11.29
2019-05-07T18:14:52.787Z,11.19
2019-05-07T18:17:23.181Z,11.13
2019-05-07T18:19:51.594Z,11.05
2019-05-07T18:22:21.969Z,10.98
2019-05-07T18:24:50.230Z,10.87
2019-05-07T18:27:22.327Z,10.94
2019-05-07T18:29:52.253Z,10.88
2019-05-07T18:32:21.907Z,10.78
2019-05-07T18:34:51.906Z,10.81
2019-05-07T18:37:22.731Z,10.77
2019-05-07T18:39:52.189Z,10.74
2019-05-07T18:42:22.191Z,10.72
2019-05-07T18:44:52.387Z,10.77
2019-05-07T18:47:22.308Z,10.71
2019-05-07T18:49:51.922Z,10.67
2019-05-07T18:52:22.822Z,10.67
2019-05-07T18:54:52.047Z,10.58
2019-05-07T18:57:22.189Z,10.54
2019-05-07T18:59:53.066Z,10.54
2019-05-07T19:02:22.584Z,10.54
2019-05-07T19:04:51.892Z,10.58
2019-05-07T19:07:22.822Z,10.58
2019-05-07T19:09:51.688Z,10.51
2019-05-07T19:12:22.409Z,10.49
2019-05-07T19:14:51.734Z,10.42
2019-05-07T19:17:21.875Z,10.39
2019-05-07T19:19:52.569Z,10.30
2019-05-07T19:22:22.237Z,10.30
2019-05-07T19:24:52.664Z,10.30
2019-05-07T19:27:22.010Z,10.35
2019-05-07T19:29:50.581Z,10.29
2019-05-07T19:32:18.977Z,10.31
2019-05-07T19:34:47.422Z,10.27
2019-05-07T19:37:15.829Z,10.21
2019-05-07T19:39:44.316Z,10.23
2019-05-07T19:42:12.798Z,10.21
2019-05-07T19:44:42.332Z,10.22
2019-05-07T19:47:12.664Z,10.10
2019-05-07T19:49:41.886Z,10.06
2019-05-07T19:52:12.413Z,9.99
2019-05-07T19:54:42.991Z,9.92
2019-05-07T19:57:12.547Z,9.88
2019-05-07T19:59:42.858Z,9.77
2019-05-07T20:02:12.743Z,9.78
2019-05-07T20:04:42.750Z,9.74
2019-05-07T20:07:12.231Z,9.75
2019-05-07T20:09:42.486Z,9.69
2019-05-07T20:12:11.462Z,9.62
2019-05-07T20:14:42.085Z,9.58
2019-05-07T20:17:12.157Z,9.53
2019-05-07T20:19:44.762Z,9.49
2019-05-07T20:22:13.332Z,9.48
2019-05-07T20:24:42.048Z,9.38
2019-05-07T20:27:12.454Z,9.38
2019-05-07T20:29:42.801Z,9.38
2019-05-07T20:32:11.425Z,9.35
2019-05-07T20:34:39.851Z,9.27
2019-05-07T20:37:08.470Z,9.21
2019-05-07T20:39:37.749Z,9.06
2019-05-07T20:42:06.801Z,9.00
2019-05-07T20:44:35.366Z,8.96
2019-05-07T20:47:03.973Z,8.91
2019-05-07T20:49:32.957Z,8.86
2019-05-07T20:52:01.443Z,8.82
2019-05-07T20:54:32.510Z,8.81
2019-05-07T20:57:08.622Z,8.79
2019-05-07T20:59:37.179Z,8.78
2019-05-07T21:02:05.727Z,8.65
2019-05-07T21:04:35.443Z,8.59
2019-05-07T21:07:04.249Z,8.56
2019-05-07T21:09:33.068Z,8.53
2019-05-07T21:12:01.653Z,8.48
2019-05-07T21:14:32.457Z,8.50
2019-05-07T21:17:01.549Z,8.48
2019-05-07T21:19:30.250Z,8.45
2019-05-07T21:21:58.868Z,8.45
2019-05-07T21:24:27.354Z,8.42
2019-05-07T21:26:55.863Z,8.42
2019-05-07T21:29:24.337Z,8.41
2019-05-07T21:31:52.842Z,8.40
2019-05-07T21:34:23.061Z,8.36
2019-05-07T21:36:53.999Z,8.32
2019-05-07T21:39:22.683Z,8.22
2019-05-07T21:41:56.709Z,8.12
2019-05-07T21:44:25.463Z,8.01
2019-05-07T21:46:54.232Z,8.00
2019-05-07T21:49:22.992Z,8.04
2019-05-07T21:51:52.271Z,7.95
2019-05-07T21:54:23.723Z,7.95
2019-05-07T21:56:57.749Z,7.93
2019-05-07T21:59:33.520Z,7.83
2019-05-07T22:02:02.764Z,7.81
2019-05-07T22:04:31.159Z,7.77
2019-05-07T22:07:02.770Z,7.69
2019-05-07T22:09:33.024Z,7.63
2019-05-07T22:12:03.673Z,7.55
2019-05-07T22:14:32.993Z,7.57
2019-05-07T22:17:02.105Z,7.47
2019-05-07T22:19:33.560Z,7.48
2019-05-07T22:22:02.896Z,7.48
2019-05-07T22:24:32.901Z,7.42
2019-05-07T22:27:01.724Z,7.46
2019-05-07T22:29:31.566Z,7.38
2019-05-07T22:32:04.585Z,7.35
2019-05-07T22:34:34.648Z,7.27
2019-05-07T22:37:09.525Z,7.25
2019-05-07T22:39:37.942Z,7.19
2019-05-07T22:42:06.365Z,7.21
2019-05-07T22:44:34.783Z,7.09
2019-05-07T22:47:07.547Z,7.07
2019-05-07T22:49:35.990Z,7.03
2019-05-07T22:52:04.392Z,7.08
2019-05-07T22:54:32.816Z,6.96
2019-05-07T22:57:19.017Z,6.89
2019-05-07T22:59:47.419Z,6.85
2019-05-07T23:02:15.894Z,6.82
2019-05-07T23:04:44.312Z,6.83
2019-05-07T23:07:12.880Z,6.81
2019-05-07T23:09:41.993Z,6.75
2019-05-07T23:12:12.410Z,6.68
2019-05-07T23:14:41.139Z,6.71
2019-05-07T23:17:09.575Z,6.65
2019-05-07T23:19:37.984Z,6.61
2019-05-07T23:22:06.450Z,6.51
2019-05-07T23:24:34.884Z,6.48
2019-05-07T23:27:03.282Z,6.41
2019-05-07T23:29:33.019Z,6.33
2019-05-07T23:32:02.082Z,6.32
2019-05-07T23:34:32.598Z,6.26
2019-05-07T23:37:02.508Z,6.23
2019-05-07T23:39:35.659Z,6.28
2019-05-07T23:42:05.718Z,6.28
2019-05-07T23:44:34.136Z,6.26
2019-05-07T23:47:02.861Z,6.21
2019-05-07T23:49:32.231Z,6.21
2019-05-07T23:52:02.391Z,6.24
2019-05-07T23:54:31.919Z,6.18
2019-05-07T23:57:07.140Z,6.15
2019-05-07T23:59:32.689Z,6.06
